createdAt,value
2022-10-19T00:02:18.561Z,102257.75
2022-10-19T00:04:46.675Z,102266.78
2022-10-19T00:07:14.727Z,102264.28
2022-10-19T00:09:45.196Z,102259.16
2022-10-19T00:12:13.139Z,102260.22
2022-10-19T00:14:40.807Z,102262.03
2022-10-19T00:17:08.351Z,102259.50
2022-10-19T00:19:35.911Z,102256.94
2022-10-19T00:22:03.571Z,102257.88
2022-10-19T00:24:31.267Z,102255.31
2022-10-19T00:27:00.552Z,102258.03
2022-10-19T00:29:28.279Z,102261.75
2022-10-19T00:31:55.908Z,102254.91
2022-10-19T00:34:23.512Z,102253.19
2022-10-19T00:36:51.103Z,102258.56
2022-10-19T00:39:20.069Z,102255.13
2022-10-19T00:41:48.694Z,102258.69
2022-10-19T00:44:53.548Z,102251.78
2022-10-19T00:47:25.764Z,102258.06
2022-10-19T00:49:53.786Z,102261.72
2022-10-19T00:52:24.533Z,102262.69
2022-10-19T00:54:54.954Z,102261.06
2022-10-19T00:57:24.347Z,102268.22
2022-10-19T00:59:53.034Z,102256.00
2022-10-19T01:02:22.111Z,102269.28
2022-10-19T01:04:52.768Z,102268.44
2022-10-19T01:07:21.159Z,102267.66
2022-10-19T01:09:48.820Z,102269.50
2022-10-19T01:12:28.066Z,102262.50
2022-10-19T01:15:07.055Z,102267.00
2022-10-19T01:17:50.606Z,102264.41
2022-10-19T01:20:58.034Z,102255.72
2022-10-19T01:24:14.325Z,102265.50
2022-10-19T01:27:04.562Z,102259.41
2022-10-19T01:29:51.406Z,102249.84
2022-10-19T01:32:25.881Z,102255.22
2022-10-19T01:35:03.803Z,102250.91
2022-10-19T01:37:38.911Z,102250.06
2022-10-19T01:40:12.056Z,102246.66
2022-10-19T01:42:47.109Z,102237.06
2022-10-19T01:45:20.474Z,102241.56
2022-10-19T01:47:54.065Z,102244.38
2022-10-19T01:50:32.557Z,102240.91
2022-10-19T01:53:00.813Z,102242.00
2022-10-19T01:55:29.674Z,102245.63
2022-10-19T01:58:01.698Z,102245.78
2022-10-19T02:00:33.063Z,102244.97
2022-10-19T02:03:01.968Z,102245.13
2022-10-19T02:05:32.842Z,102237.38
2022-10-19T02:08:04.618Z,102245.38
2022-10-19T02:10:35.416Z,102248.13
2022-10-19T02:13:04.432Z,102251.72
2022-10-19T02:15:36.576Z,102252.72
2022-10-19T02:18:04.554Z,102257.13
2022-10-19T02:20:32.166Z,102257.19
2022-10-19T02:22:59.699Z,102258.19
2022-10-19T02:25:27.695Z,102245.97
2022-10-19T02:27:55.329Z,102257.53
2022-10-19T02:30:23.223Z,102249.69
2022-10-19T02:32:52.696Z,102252.38
2022-10-19T02:35:20.772Z,102254.25
2022-10-19T02:37:48.468Z,102249.97
2022-10-19T02:40:16.180Z,102246.50
2022-10-19T02:42:49.093Z,102247.53
2022-10-19T02:45:23.367Z,102244.09
2022-10-19T02:47:55.652Z,102250.28
2022-10-19T02:50:24.055Z,102244.28
2022-10-19T02:52:51.939Z,102244.34
2022-10-19T02:55:19.800Z,102247.91
2022-10-19T02:57:47.425Z,102251.47
2022-10-19T03:00:15.140Z,102245.50
2022-10-19T03:02:43.967Z,102246.47
2022-10-19T03:05:13.029Z,102242.19
2022-10-19T03:07:42.234Z,102241.38
2022-10-19T03:10:10.718Z,102245.03
2022-10-19T03:12:38.300Z,102247.78
2022-10-19T03:15:06.608Z,102247.00
2022-10-19T03:17:34.837Z,102241.78
2022-10-19T03:20:02.594Z,102237.44
2022-10-19T03:22:31.682Z,102248.88
2022-10-19T03:24:59.284Z,102242.81
2022-10-19T03:27:27.037Z,102236.78
2022-10-19T03:29:54.610Z,102239.41
2022-10-19T03:32:22.723Z,102232.44
2022-10-19T03:34:50.332Z,102234.22
2022-10-19T03:37:17.904Z,102237.75
2022-10-19T03:39:46.816Z,102234.25
2022-10-19T03:42:14.450Z,102236.88
2022-10-19T03:44:42.017Z,102239.53
2022-10-19T03:47:09.631Z,102229.03
2022-10-19T03:49:39.553Z,102232.69
2022-10-19T03:52:09.952Z,102236.22
2022-10-19T03:54:37.613Z,102238.94
2022-10-19T03:57:06.620Z,102239.84
2022-10-19T03:59:34.578Z,102238.16
2022-10-19T04:02:02.217Z,102240.78
2022-10-19T04:04:29.799Z,102251.34
2022-10-19T04:06:57.485Z,102247.84
2022-10-19T04:09:25.200Z,102251.41
2022-10-19T04:11:53.011Z,102259.25
2022-10-19T04:14:32.643Z,102251.25
2022-10-19T04:17:06.729Z,102254.69
2022-10-19T04:19:34.357Z,102260.81
2022-10-19T04:22:02.057Z,102259.97
2022-10-19T04:24:29.900Z,102252.00
2022-10-19T04:26:57.893Z,102253.72
2022-10-19T04:29:29.938Z,102250.16
2022-10-19T04:32:00.108Z,102249.22
2022-10-19T04:34:27.706Z,102251.78
2022-10-19T04:36:55.323Z,102248.25
2022-10-19T04:39:22.880Z,102235.00
2022-10-19T04:41:50.482Z,102242.81
2022-10-19T04:44:18.057Z,102237.56
2022-10-19T04:46:46.957Z,102238.34
2022-10-19T04:49:17.800Z,102244.44
2022-10-19T04:51:47.866Z,102250.47
2022-10-19T04:54:15.462Z,102246.00
2022-10-19T04:56:43.034Z,102240.59
2022-10-19T04:59:11.094Z,102230.91
2022-10-19T05:01:40.434Z,102224.56
2022-10-19T05:04:11.680Z,102221.84
2022-10-19T05:06:39.407Z,102222.63
2022-10-19T05:09:07.691Z,102220.81
2022-10-19T05:11:35.436Z,102217.94
2022-10-19T05:14:03.161Z,102204.69
2022-10-19T05:16:30.775Z,102206.41
2022-10-19T05:18:59.571Z,102207.16
2022-10-19T05:21:29.767Z,102202.66
2022-10-19T05:23:57.987Z,102206.88
2022-10-19T05:26:27.731Z,102204.16
2022-10-19T05:28:57.279Z,102211.06
2022-10-19T05:31:27.574Z,102214.56
2022-10-19T05:33:57.176Z,102204.84
2022-10-19T05:36:26.536Z,102203.97
2022-10-19T05:38:57.326Z,102203.88
2022-10-19T05:41:26.579Z,102204.72
2022-10-19T05:43:55.362Z,102209.94
2022-10-19T05:46:23.503Z,102212.50
2022-10-19T05:48:51.098Z,102212.50
2022-10-19T05:51:20.649Z,102214.25
2022-10-19T05:53:48.324Z,102212.38
2022-10-19T05:56:19.436Z,102213.16
2022-10-19T05:58:47.369Z,102206.91
2022-10-19T06:01:15.467Z,102206.81
2022-10-19T06:03:43.476Z,102205.81
2022-10-19T06:06:11.382Z,102208.41
2022-10-19T06:08:40.145Z,102218.84
2022-10-19T06:11:09.810Z,102223.19
2022-10-19T06:13:39.623Z,102222.13
2022-10-19T06:16:08.900Z,102226.47
2022-10-19T06:18:36.910Z,102224.66
2022-10-19T06:21:06.417Z,102228.06
2022-10-19T06:23:35.008Z,102222.63
2022-10-19T06:26:04.395Z,102217.13
2022-10-19T06:28:32.127Z,102222.34
2022-10-19T06:31:01.316Z,102211.66
2022-10-19T06:33:29.950Z,102218.56
2022-10-19T06:35:57.574Z,102231.66
2022-10-19T06:38:25.251Z,102221.84
2022-10-19T06:40:52.809Z,102217.38
2022-10-19T06:43:20.406Z,102230.44
2022-10-19T06:45:47.922Z,102234.72
2022-10-19T06:48:16.948Z,102239.00
2022-10-19T06:50:44.499Z,102245.91
2022-10-19T06:53:12.257Z,102248.34
2022-10-19T06:55:39.788Z,102245.56
2022-10-19T06:58:07.346Z,102241.84
2022-10-19T07:00:35.308Z,102232.84
2022-10-19T07:03:02.928Z,102237.91
2022-10-19T07:05:31.911Z,102241.19
2022-10-19T07:07:59.535Z,102239.19
2022-10-19T07:10:27.362Z,102237.16
2022-10-19T07:12:57.447Z,102236.84
2022-10-19T07:15:25.167Z,102248.06
2022-10-19T07:17:53.847Z,102245.22
2022-10-19T07:20:21.609Z,102244.91
2022-10-19T07:22:50.539Z,102242.81
2022-10-19T07:25:18.225Z,102238.16
2022-10-19T07:27:45.727Z,102239.63
2022-10-19T07:30:13.315Z,102239.34
2022-10-19T07:32:44.535Z,102239.88
2022-10-19T07:35:14.805Z,102238.72
2022-10-19T07:37:42.651Z,102240.94
2022-10-19T07:40:13.468Z,102238.94
2022-10-19T07:42:41.097Z,102242.13
2022-10-19T07:45:08.973Z,102240.09
2022-10-19T07:47:37.678Z,102242.41
2022-10-19T07:50:05.887Z,102243.81
2022-10-19T07:52:36.982Z,102239.91
2022-10-19T07:55:05.320Z,102240.44
2022-10-19T07:57:34.204Z,102240.97
2022-10-19T08:00:02.163Z,102245.78
2022-10-19T08:02:59.807Z,102241.03
2022-10-19T08:05:27.583Z,102245.81
2022-10-19T08:07:57.186Z,102251.63
2022-10-19T08:10:25.021Z,102253.69
2022-10-19T08:12:54.164Z,102248.84
2022-10-19T08:15:21.996Z,102252.81
2022-10-19T08:17:49.698Z,102254.00
2022-10-19T08:20:17.634Z,102247.31
2022-10-19T08:22:45.362Z,102245.97
2022-10-19T08:25:12.906Z,102242.66
2022-10-19T08:27:40.497Z,102250.88
2022-10-19T08:30:10.204Z,102244.19
2022-10-19T08:32:37.872Z,102238.25
2022-10-19T08:35:09.988Z,102236.75
2022-10-19T08:37:44.825Z,102238.78
2022-10-19T08:40:19.092Z,102235.59
2022-10-19T08:42:56.720Z,102244.63
2022-10-19T08:48:26.641Z,102229.03
2022-10-19T08:50:55.607Z,102237.31
2022-10-19T08:53:32.315Z,102236.84
2022-10-19T08:56:14.995Z,102233.63
2022-10-19T08:58:57.956Z,102238.44
2022-10-19T09:01:37.683Z,102236.06
2022-10-19T09:04:08.947Z,102243.47
2022-10-19T09:06:48.564Z,102242.91
2022-10-19T09:09:19.454Z,102235.28
2022-10-19T09:11:50.053Z,102247.16
2022-10-19T09:14:27.160Z,102241.31
2022-10-19T09:17:00.962Z,102252.31
2022-10-19T09:19:31.881Z,102245.72
2022-10-19T09:22:03.724Z,102242.38
2022-10-19T09:24:41.248Z,102245.59
2022-10-19T09:27:17.994Z,102241.78
2022-10-19T09:29:49.195Z,102239.63
2022-10-19T09:32:22.480Z,102234.84
2022-10-19T09:34:53.100Z,102228.59
2022-10-19T09:37:26.230Z,102231.03
2022-10-19T09:39:55.539Z,102217.53
2022-10-19T09:42:29.140Z,102222.44
2022-10-19T09:44:59.464Z,102214.88
2022-10-19T09:47:37.378Z,102215.94
2022-10-19T09:50:16.391Z,102218.09
2022-10-19T09:52:45.445Z,102214.78
2022-10-19T09:55:25.895Z,102217.69
2022-10-19T09:58:00.965Z,102221.50
2022-10-19T10:00:34.306Z,102219.19
2022-10-19T10:03:03.682Z,102220.59
2022-10-19T10:05:34.203Z,102218.53
2022-10-19T10:08:02.323Z,102209.25
2022-10-19T10:10:34.595Z,102207.84
2022-10-19T10:13:03.186Z,102199.72
2022-10-19T10:15:42.359Z,102191.38
2022-10-19T10:18:15.748Z,102195.31
2022-10-19T10:20:59.992Z,102195.81
2022-10-19T10:23:31.088Z,102196.56
2022-10-19T10:26:01.349Z,102199.03
2022-10-19T10:28:30.347Z,102191.84
2022-10-19T10:31:04.484Z,102188.94
2022-10-19T10:33:45.280Z,102188.09
2022-10-19T10:36:13.944Z,102185.72
2022-10-19T10:38:46.586Z,102193.63
2022-10-19T10:41:18.046Z,102183.69
2022-10-19T10:43:57.507Z,102178.00
2022-10-19T10:46:30.389Z,102174.03
2022-10-19T10:49:00.914Z,102176.19
2022-10-19T10:51:35.577Z,102176.06
2022-10-19T10:54:16.817Z,102176.84
2022-10-19T10:56:46.273Z,102174.94
2022-10-19T10:59:19.472Z,102164.25
2022-10-19T11:02:03.745Z,102168.75
2022-10-19T11:04:38.750Z,102163.63
2022-10-19T11:07:17.426Z,102162.94
2022-10-19T11:09:51.654Z,102155.44
2022-10-19T11:12:25.138Z,102162.38
2022-10-19T11:15:01.686Z,102158.97
2022-10-19T11:17:34.941Z,102151.69
2022-10-19T11:20:07.165Z,102147.84
2022-10-19T11:22:44.144Z,102141.28
2022-10-19T11:25:33.752Z,102141.56
2022-10-19T11:28:23.197Z,102127.47
2022-10-19T11:31:00.408Z,102120.91
2022-10-19T11:36:30.485Z,102119.72
2022-10-19T11:39:11.132Z,102102.09
2022-10-19T11:41:45.200Z,102091.69
2022-10-19T11:44:34.758Z,102081.00
2022-10-19T11:47:22.251Z,102081.88
2022-10-19T11:50:03.517Z,102076.91
2022-10-19T11:52:39.545Z,102068.88
2022-10-19T11:55:17.730Z,102073.25
2022-10-19T11:57:51.494Z,102080.06
2022-10-19T12:00:38.061Z,102061.84
2022-10-19T12:03:38.493Z,102063.66
2022-10-19T12:06:16.768Z,102057.44
2022-10-19T12:09:01.182Z,102052.97
2022-10-19T12:11:45.510Z,102042.16
2022-10-19T12:14:18.124Z,102049.06
2022-10-19T12:16:51.489Z,102050.78
2022-10-19T12:19:22.113Z,102046.91
2022-10-19T12:21:51.801Z,102048.84
2022-10-19T12:24:24.304Z,102038.88
2022-10-19T12:26:54.785Z,102046.53
2022-10-19T12:29:26.659Z,102046.41
2022-10-19T12:31:56.784Z,102045.69
2022-10-19T12:34:38.987Z,102038.53
2022-10-19T12:37:12.337Z,102033.41
2022-10-19T12:39:47.090Z,102023.47
2022-10-19T12:42:22.582Z,102023.47
2022-10-19T12:45:07.940Z,102018.84
2022-10-19T12:47:36.281Z,102012.41
2022-10-19T12:50:05.189Z,102000.00
2022-10-19T12:52:39.767Z,101995.41
2022-10-19T12:55:30.746Z,101993.47
2022-10-19T12:58:02.358Z,101997.25
2022-10-19T13:00:32.698Z,101995.06
2022-10-19T13:03:04.521Z,102000.50
2022-10-19T13:05:33.842Z,101989.94
2022-10-19T13:08:03.557Z,101984.59
2022-10-19T13:10:33.528Z,101976.97
2022-10-19T13:13:02.984Z,101969.06
2022-10-19T13:15:52.333Z,101968.72
2022-10-19T13:19:10.718Z,101967.47
2022-10-19T13:21:47.039Z,101954.38
2022-10-19T13:24:37.393Z,101957.63
2022-10-19T13:27:36.647Z,101949.03
2022-10-19T13:30:05.512Z,101936.50
2022-10-19T13:32:38.075Z,101931.03
2022-10-19T13:35:26.449Z,101929.06
2022-10-19T13:38:24.279Z,101927.38
2022-10-19T13:41:06.444Z,101937.22
2022-10-19T13:43:38.338Z,101934.41
2022-10-19T13:46:11.437Z,101926.41
2022-10-19T13:48:53.795Z,101924.72
2022-10-19T13:51:32.060Z,101916.09
2022-10-19T13:54:11.315Z,101913.31
2022-10-19T13:56:50.864Z,101913.66
2022-10-19T13:59:40.689Z,101914.88
2022-10-19T14:02:41.162Z,101913.41
2022-10-19T14:05:26.738Z,101913.00
2022-10-19T14:08:08.095Z,101909.63
2022-10-19T14:10:56.364Z,101917.50
2022-10-19T14:13:24.265Z,101909.75
2022-10-19T14:15:56.074Z,101907.09
2022-10-19T14:18:26.634Z,101904.16
2022-10-19T14:20:59.486Z,101903.91
2022-10-19T14:23:28.964Z,101894.44
2022-10-19T14:26:00.052Z,101890.19
2022-10-19T14:28:29.004Z,101888.94
2022-10-19T14:31:00.292Z,101886.69
2022-10-19T14:33:30.008Z,101891.56
2022-10-19T14:35:57.805Z,101885.22
2022-10-19T14:38:30.722Z,101881.56
2022-10-19T14:40:58.428Z,101878.44
2022-10-19T14:43:28.171Z,101871.88
2022-10-19T14:46:12.002Z,101870.91
2022-10-19T14:48:42.049Z,101869.56
2022-10-19T14:51:21.769Z,101870.78
2022-10-19T14:53:52.212Z,101864.84
2022-10-19T14:56:24.397Z,101872.16
2022-10-19T14:59:00.190Z,101878.56
2022-10-19T15:01:29.321Z,101866.44
2022-10-19T15:03:57.418Z,101866.69
2022-10-19T15:06:28.241Z,101865.38
2022-10-19T15:08:59.269Z,101862.09
2022-10-19T15:11:30.670Z,101864.88
2022-10-19T15:14:04.842Z,101857.38
2022-10-19T15:16:43.075Z,101860.41
2022-10-19T15:19:20.409Z,101855.19
2022-10-19T15:21:48.211Z,101852.66
2022-10-19T15:24:27.114Z,101844.38
2022-10-19T15:27:08.804Z,101834.19
2022-10-19T15:29:36.934Z,101835.53
2022-10-19T15:32:17.365Z,101837.38
2022-10-19T15:34:46.711Z,101837.75
2022-10-19T15:37:21.017Z,101837.97
2022-10-19T15:39:49.527Z,101839.44
2022-10-19T15:42:33.110Z,101829.84
2022-10-19T15:45:01.099Z,101842.47
2022-10-19T15:47:30.312Z,101833.84
2022-10-19T15:50:01.529Z,101836.28
2022-10-19T15:52:31.363Z,101832.88
2022-10-19T15:55:00.347Z,101834.81
2022-10-19T15:57:33.555Z,101833.47
2022-10-19T16:00:09.551Z,101831.91
2022-10-19T16:02:38.973Z,101828.72
2022-10-19T16:05:08.058Z,101829.84
2022-10-19T16:07:39.467Z,101831.16
2022-10-19T16:10:08.678Z,101825.06
2022-10-19T16:12:36.265Z,101833.53
2022-10-19T16:15:04.196Z,101833.09
2022-10-19T16:17:32.094Z,101840.44
2022-10-19T16:20:01.233Z,101833.50
2022-10-19T16:22:29.256Z,101829.38
2022-10-19T16:24:56.884Z,101825.47
2022-10-19T16:27:25.044Z,101828.50
2022-10-19T16:29:52.638Z,101824.00
2022-10-19T16:32:20.208Z,101821.09
2022-10-19T16:34:48.094Z,101830.28
2022-10-19T16:37:17.020Z,101825.28
2022-10-19T16:39:44.642Z,101834.38
2022-10-19T16:42:12.303Z,101827.56
2022-10-19T16:44:39.859Z,101824.50
2022-10-19T16:47:07.468Z,101827.50
2022-10-19T16:49:35.453Z,101828.59
2022-10-19T16:52:03.104Z,101819.00
2022-10-19T16:54:32.878Z,101809.56
2022-10-19T16:57:00.472Z,101808.09
2022-10-19T16:59:28.134Z,101811.06
2022-10-19T17:01:55.800Z,101806.09
2022-10-19T17:04:23.437Z,101809.00
2022-10-19T17:06:51.548Z,101807.38
2022-10-19T17:12:08.987Z,101799.75
2022-10-19T17:14:37.196Z,101799.97
2022-10-19T17:17:04.775Z,101802.88
2022-10-19T17:19:32.515Z,101789.78
2022-10-19T17:22:01.846Z,101777.53
2022-10-19T17:24:29.888Z,101781.28
2022-10-19T17:26:57.757Z,101774.13
2022-10-19T17:29:27.478Z,101775.34
2022-10-19T17:31:55.042Z,101773.72
2022-10-19T17:34:22.715Z,101769.25
2022-10-19T17:36:50.339Z,101758.94
2022-10-19T17:39:24.400Z,101765.59
2022-10-19T17:41:55.339Z,101756.72
2022-10-19T17:44:23.382Z,101749.09
2022-10-19T17:46:52.277Z,101741.13
2022-10-19T17:49:19.995Z,101745.59
2022-10-19T17:51:47.592Z,101736.44
2022-10-19T17:54:15.562Z,101741.88
2022-10-19T17:56:45.215Z,101735.94
2022-10-19T17:59:13.501Z,101735.84
2022-10-19T18:01:41.476Z,101742.84
2022-10-19T18:04:10.403Z,101746.94
2022-10-19T18:06:39.348Z,101748.84
2022-10-19T18:09:09.556Z,101735.75
2022-10-19T18:11:39.851Z,101734.91
2022-10-19T18:14:09.300Z,101744.06
2022-10-19T18:16:39.096Z,101749.50
2022-10-19T18:19:07.975Z,101755.75
2022-10-19T18:21:39.392Z,101754.19
2022-10-19T18:24:12.712Z,101746.19
2022-10-19T18:26:43.537Z,101745.47
2022-10-19T18:29:13.631Z,101752.38
2022-10-19T18:31:42.700Z,101744.06
2022-10-19T18:34:15.724Z,101747.69
2022-10-19T18:36:45.268Z,101742.56
2022-10-19T18:39:14.249Z,101740.03
2022-10-19T18:41:42.550Z,101734.72
2022-10-19T18:44:13.067Z,101734.06
2022-10-19T18:46:41.311Z,101736.72
2022-10-19T18:49:09.773Z,101731.72
2022-10-19T18:51:37.625Z,101725.69
2022-10-19T18:54:06.785Z,101734.75
2022-10-19T18:56:36.354Z,101727.63
2022-10-19T18:59:04.078Z,101731.31
2022-10-19T19:01:31.772Z,101746.31
2022-10-19T19:04:06.405Z,101742.19
2022-10-19T19:06:36.199Z,101741.41
2022-10-19T19:09:09.042Z,101739.00
2022-10-19T19:11:40.644Z,101729.53
2022-10-19T19:14:12.066Z,101724.31
2022-10-19T19:16:40.869Z,101714.78
2022-10-19T19:19:09.123Z,101714.97
2022-10-19T19:21:36.930Z,101707.97
2022-10-19T19:24:07.054Z,101703.50
2022-10-19T19:26:39.899Z,101693.06
2022-10-19T19:29:08.030Z,101690.53
2022-10-19T19:31:35.563Z,101698.72
2022-10-19T19:34:06.229Z,101687.44
2022-10-19T19:36:34.157Z,101690.34
2022-10-19T19:39:02.008Z,101687.75
2022-10-19T19:41:31.345Z,101687.88
2022-10-19T19:44:01.407Z,101686.28
2022-10-19T19:46:29.322Z,101684.50
2022-10-19T19:49:00.944Z,101682.03
2022-10-19T19:51:30.418Z,101674.19
2022-10-19T19:53:58.688Z,101677.69
2022-10-19T19:56:26.623Z,101680.66
2022-10-19T19:58:56.637Z,101672.56
2022-10-19T20:01:26.037Z,101668.31
2022-10-19T20:03:53.897Z,101662.47
2022-10-19T20:06:25.211Z,101661.75
2022-10-19T20:08:54.302Z,101652.94
2022-10-19T20:11:22.172Z,101653.25
2022-10-19T20:13:50.226Z,101648.91
2022-10-19T20:16:21.770Z,101645.28
2022-10-19T20:18:59.665Z,101635.06
2022-10-19T20:21:27.935Z,101622.13
2022-10-19T20:23:55.500Z,101633.69
2022-10-19T20:26:24.931Z,101628.69
2022-10-19T20:28:52.856Z,101633.38
2022-10-19T20:31:21.373Z,101638.78
2022-10-19T20:33:49.291Z,101638.88
2022-10-19T20:36:20.364Z,101639.84
2022-10-19T20:38:50.085Z,101625.19
2022-10-19T20:41:18.566Z,101620.00
2022-10-19T20:43:46.417Z,101626.34
2022-10-19T20:46:15.651Z,101620.19
2022-10-19T20:48:43.250Z,101627.41
2022-10-19T20:51:13.509Z,101635.69
2022-10-19T20:53:43.516Z,101634.00
2022-10-19T20:56:12.089Z,101625.28
2022-10-19T20:58:42.618Z,101622.84
2022-10-19T21:01:12.958Z,101621.13
2022-10-19T21:03:41.497Z,101617.81
2022-10-19T21:06:10.142Z,101623.47
2022-10-19T21:08:38.149Z,101627.28
2022-10-19T21:11:16.183Z,101618.47
2022-10-19T21:13:44.121Z,101607.09
2022-10-19T21:16:12.720Z,101609.75
2022-10-19T21:18:41.046Z,101595.97
2022-10-19T21:21:13.886Z,101602.41
2022-10-19T21:23:41.724Z,101597.31
2022-10-19T21:26:09.448Z,101593.81
2022-10-19T21:28:39.860Z,101603.69
2022-10-19T21:31:08.992Z,101602.16
2022-10-19T21:33:36.957Z,101594.44
2022-10-19T21:36:06.470Z,101588.28
2022-10-19T21:38:35.114Z,101588.59
2022-10-19T21:41:05.168Z,101592.25
2022-10-19T21:43:33.617Z,101580.91
2022-10-19T21:46:04.694Z,101582.91
2022-10-19T21:48:33.626Z,101583.97
2022-10-19T21:51:02.497Z,101568.28
2022-10-19T21:53:30.054Z,101563.00
2022-10-19T21:56:00.432Z,101561.44
2022-10-19T21:58:28.011Z,101566.94
2022-10-19T22:00:55.628Z,101561.75
2022-10-19T22:03:24.503Z,101557.41
2022-10-19T22:05:53.253Z,101545.19
2022-10-19T22:08:20.866Z,101540.84
2022-10-19T22:10:48.419Z,101542.94
2022-10-19T22:13:16.047Z,101528.94
2022-10-19T22:15:43.629Z,101526.41
2022-10-19T22:18:11.249Z,101515.16
2022-10-19T22:20:41.175Z,101517.06
2022-10-19T22:23:09.125Z,101517.16
2022-10-19T22:25:36.818Z,101512.06
2022-10-19T22:28:04.732Z,101515.84
2022-10-19T22:30:32.505Z,101515.97
2022-10-19T22:33:00.082Z,101509.91
2022-10-19T22:35:27.700Z,101516.25
2022-10-19T22:37:56.994Z,101508.50
2022-10-19T22:40:25.125Z,101509.47
2022-10-19T22:42:52.665Z,101515.91
2022-10-19T22:45:20.315Z,101514.31
2022-10-19T22:47:47.943Z,101507.31
2022-10-19T22:50:15.596Z,101496.81
2022-10-19T22:52:43.256Z,101505.72
2022-10-19T22:55:12.203Z,101504.03
2022-10-19T22:57:39.827Z,101492.75
2022-10-19T23:00:08.975Z,101487.56
2022-10-19T23:02:36.874Z,101486.72
2022-10-19T23:05:05.340Z,101480.69
2022-10-19T23:07:33.455Z,101486.06
2022-10-19T23:10:01.435Z,101486.28
2022-10-19T23:12:30.657Z,101482.69
2022-10-19T23:14:58.284Z,101480.13
2022-10-19T23:17:25.928Z,101471.41
2022-10-19T23:19:53.566Z,101459.25
2022-10-19T23:22:21.150Z,101457.53
2022-10-19T23:24:48.767Z,101457.63
2022-10-19T23:27:16.328Z,101459.41
2022-10-19T23:29:45.521Z,101451.47
2022-10-19T23:32:13.163Z,101452.66
2022-10-19T23:34:43.153Z,101446.50
2022-10-19T23:37:13.524Z,101446.59
2022-10-19T23:39:41.172Z,101447.53
2022-10-19T23:42:09.215Z,101442.25
2022-10-19T23:44:36.773Z,101441.50
2022-10-19T23:47:06.060Z,101431.03
2022-10-19T23:49:33.654Z,101425.72
2022-10-19T23:52:01.349Z,101434.59
2022-10-19T23:54:29.008Z,101429.28
2022-10-19T23:56:56.612Z,101415.31
2022-10-19T23:59:24.399Z,101423.25
